sensor_id;sensor_type;location;lat;lon;timestamp;temperature;humidity
48535;DHT22;34323;52.022;5.686;2022-09-13T00:01:58;24.50;99.90
48535;DHT22;34323;52.022;5.686;2022-09-13T00:04:24;24.60;99.90
48535;DHT22;34323;52.022;5.686;2022-09-13T00:06:50;24.60;99.90
48535;DHT22;34323;52.022;5.686;2022-09-13T00:09:16;24.60;99.90
48535;DHT22;34323;52.022;5.686;2022-09-13T00:11:41;24.60;99.90
48535;DHT22;34323;52.022;5.686;2022-09-13T00:14:07;24.50;99.90
48535;DHT22;34323;52.022;5.686;2022-09-13T00:16:33;24.50;99.90
48535;DHT22;34323;52.022;5.686;2022-09-13T00:18:59;24.50;99.90
48535;DHT22;34323;52.022;5.686;2022-09-13T00:21:25;24.50;99.90
48535;DHT22;34323;52.022;5.686;2022-09-13T00:23:54;24.60;99.90
48535;DHT22;34323;52.022;5.686;2022-09-13T00:26:22;24.70;99.90
48535;DHT22;34323;52.022;5.686;2022-09-13T00:28:50;24.80;99.90
48535;DHT22;34323;52.022;5.686;2022-09-13T00:31:16;24.90;99.90
48535;DHT22;34323;52.022;5.686;2022-09-13T00:33:42;25.00;99.90
48535;DHT22;34323;52.022;5.686;2022-09-13T00:36:10;25.00;99.90
48535;DHT22;34323;52.022;5.686;2022-09-13T00:38:37;24.90;99.90
48535;DHT22;34323;52.022;5.686;2022-09-13T00:41:05;24.80;99.90
48535;DHT22;34323;52.022;5.686;2022-09-13T00:43:58;24.70;99.90
48535;DHT22;34323;52.022;5.686;2022-09-13T00:49:21;24.50;99.90
48535;DHT22;34323;52.022;5.686;2022-09-13T00:51:51;24.40;99.90
48535;DHT22;34323;52.022;5.686;2022-09-13T00:54:21;24.40;99.90
48535;DHT22;34323;52.022;5.686;2022-09-13T00:56:51;24.60;99.90
48535;DHT22;34323;52.022;5.686;2022-09-13T00:59:22;24.70;99.90
48535;DHT22;34323;52.022;5.686;2022-09-13T01:01:53;24.80;99.90
48535;DHT22;34323;52.022;5.686;2022-09-13T01:04:23;24.60;99.90
48535;DHT22;34323;52.022;5.686;2022-09-13T01:06:51;24.50;99.90
48535;DHT22;34323;52.022;5.686;2022-09-13T01:09:18;24.40;99.90
48535;DHT22;34323;52.022;5.686;2022-09-13T01:11:46;24.40;99.90
48535;DHT22;34323;52.022;5.686;2022-09-13T01:14:17;24.50;99.90
48535;DHT22;34323;52.022;5.686;2022-09-13T01:16:43;24.70;99.90
48535;DHT22;34323;52.022;5.686;2022-09-13T01:19:09;24.60;99.90
48535;DHT22;34323;52.022;5.686;2022-09-13T01:22:30;24.50;99.90
48535;DHT22;34323;52.022;5.686;2022-09-13T01:44:07;24.70;99.90
48535;DHT22;34323;52.022;5.686;2022-09-13T01:46:45;24.60;99.90
48535;DHT22;34323;52.022;5.686;2022-09-13T01:49:28;24.60;99.90
48535;DHT22;34323;52.022;5.686;2022-09-13T01:52:20;24.50;99.90
48535;DHT22;34323;52.022;5.686;2022-09-13T01:55:35;24.40;99.90
48535;DHT22;34323;52.022;5.686;2022-09-13T01:58:23;24.20;99.90
48535;DHT22;34323;52.022;5.686;2022-09-13T02:01:22;24.20;99.90
48535;DHT22;34323;52.022;5.686;2022-09-13T02:04:11;24.20;99.90
48535;DHT22;34323;52.022;5.686;2022-09-13T02:07:02;24.40;99.90
48535;DHT22;34323;52.022;5.686;2022-09-13T02:09:33;24.60;99.90
48535;DHT22;34323;52.022;5.686;2022-09-13T02:12:26;24.60;99.90
48535;DHT22;34323;52.022;5.686;2022-09-13T02:15:16;24.50;99.90
48535;DHT22;34323;52.022;5.686;2022-09-13T02:17:47;24.10;99.90
48535;DHT22;34323;52.022;5.686;2022-09-13T02:20:27;24.00;99.90
48535;DHT22;34323;52.022;5.686;2022-09-13T02:22:57;24.20;99.90
48535;DHT22;34323;52.022;5.686;2022-09-13T02:25:27;24.10;99.90
48535;DHT22;34323;52.022;5.686;2022-09-13T02:28:00;24.40;99.90
48535;DHT22;34323;52.022;5.686;2022-09-13T02:30:29;24.00;99.90
48535;DHT22;34323;52.022;5.686;2022-09-13T02:33:07;23.70;99.90
48535;DHT22;34323;52.022;5.686;2022-09-13T02:35:37;23.20;99.90
48535;DHT22;34323;52.022;5.686;2022-09-13T02:38:17;22.90;99.90
48535;DHT22;34323;52.022;5.686;2022-09-13T02:40:50;23.00;99.90
48535;DHT22;34323;52.022;5.686;2022-09-13T02:43:31;23.10;99.90
48535;DHT22;34323;52.022;5.686;2022-09-13T02:49:11;23.00;99.90
48535;DHT22;34323;52.022;5.686;2022-09-13T02:51:54;23.10;99.90
48535;DHT22;34323;52.022;5.686;2022-09-13T03:00:04;23.90;99.90
48535;DHT22;34323;52.022;5.686;2022-09-13T03:02:32;23.90;99.90
48535;DHT22;34323;52.022;5.686;2022-09-13T03:04:59;23.80;99.90
48535;DHT22;34323;52.022;5.686;2022-09-13T03:07:25;24.10;99.90
48535;DHT22;34323;52.022;5.686;2022-09-13T03:09:56;24.10;99.90
48535;DHT22;34323;52.022;5.686;2022-09-13T03:18:05;24.50;99.90
48535;DHT22;34323;52.022;5.686;2022-09-13T03:41:08;24.30;99.90
48535;DHT22;34323;52.022;5.686;2022-09-13T03:43:30;24.40;99.90
48535;DHT22;34323;52.022;5.686;2022-09-13T03:46:03;24.30;99.90
48535;DHT22;34323;52.022;5.686;2022-09-13T03:48:41;24.20;99.90
48535;DHT22;34323;52.022;5.686;2022-09-13T03:51:08;24.40;99.90
48535;DHT22;34323;52.022;5.686;2022-09-13T03:53:39;24.50;99.90
48535;DHT22;34323;52.022;5.686;2022-09-13T03:56:15;24.50;99.90
48535;DHT22;34323;52.022;5.686;2022-09-13T03:58:41;24.30;99.90
48535;DHT22;34323;52.022;5.686;2022-09-13T04:01:07;23.90;99.90
48535;DHT22;34323;52.022;5.686;2022-09-13T04:03:35;23.80;99.90
48535;DHT22;34323;52.022;5.686;2022-09-13T04:06:01;23.90;99.90
48535;DHT22;34323;52.022;5.686;2022-09-13T04:08:27;24.10;99.90
48535;DHT22;34323;52.022;5.686;2022-09-13T04:10:53;24.20;99.90
48535;DHT22;34323;52.022;5.686;2022-09-13T04:13:19;24.40;99.90
48535;DHT22;34323;52.022;5.686;2022-09-13T04:15:47;24.40;99.90
48535;DHT22;34323;52.022;5.686;2022-09-13T04:18:13;24.40;99.90
48535;DHT22;34323;52.022;5.686;2022-09-13T04:20:39;24.60;99.90
48535;DHT22;34323;52.022;5.686;2022-09-13T04:23:05;24.60;99.90
48535;DHT22;34323;52.022;5.686;2022-09-13T04:25:31;24.50;99.90
48535;DHT22;34323;52.022;5.686;2022-09-13T04:27:57;24.50;99.90
48535;DHT22;34323;52.022;5.686;2022-09-13T04:30:25;24.40;99.90
48535;DHT22;34323;52.022;5.686;2022-09-13T04:32:51;24.50;99.90
48535;DHT22;34323;52.022;5.686;2022-09-13T04:35:17;24.60;99.90
48535;DHT22;34323;52.022;5.686;2022-09-13T04:37:44;24.60;99.90
48535;DHT22;34323;52.022;5.686;2022-09-13T04:40:11;24.40;99.90
48535;DHT22;34323;52.022;5.686;2022-09-13T04:42:37;24.30;99.90
48535;DHT22;34323;52.022;5.686;2022-09-13T04:45:03;24.10;99.90
48535;DHT22;34323;52.022;5.686;2022-09-13T04:47:31;24.10;99.90
48535;DHT22;34323;52.022;5.686;2022-09-13T04:49:56;24.10;99.90
48535;DHT22;34323;52.022;5.686;2022-09-13T04:52:22;24.00;99.90
48535;DHT22;34323;52.022;5.686;2022-09-13T04:54:48;24.30;99.90
48535;DHT22;34323;52.022;5.686;2022-09-13T04:57:14;24.30;99.90
48535;DHT22;34323;52.022;5.686;2022-09-13T04:59:41;24.50;99.90
48535;DHT22;34323;52.022;5.686;2022-09-13T05:02:08;24.40;99.90
48535;DHT22;34323;52.022;5.686;2022-09-13T05:04:34;24.50;99.90
48535;DHT22;34323;52.022;5.686;2022-09-13T05:07:00;24.50;99.90
48535;DHT22;34323;52.022;5.686;2022-09-13T05:09:26;24.40;99.90
48535;DHT22;34323;52.022;5.686;2022-09-13T05:11:52;24.40;99.90
48535;DHT22;34323;52.022;5.686;2022-09-13T05:14:18;24.50;99.90
48535;DHT22;34323;52.022;5.686;2022-09-13T05:16:44;24.40;99.90
48535;DHT22;34323;52.022;5.686;2022-09-13T05:19:11;24.40;99.90
48535;DHT22;34323;52.022;5.686;2022-09-13T05:21:37;24.40;99.90
48535;DHT22;34323;52.022;5.686;2022-09-13T05:24:03;24.40;99.90
48535;DHT22;34323;52.022;5.686;2022-09-13T05:26:30;24.30;99.90
48535;DHT22;34323;52.022;5.686;2022-09-13T05:28:59;24.30;99.90
48535;DHT22;34323;52.022;5.686;2022-09-13T05:31:28;24.10;99.90
48535;DHT22;34323;52.022;5.686;2022-09-13T05:34:08;24.10;99.90
48535;DHT22;34323;52.022;5.686;2022-09-13T05:36:37;24.00;99.90
48535;DHT22;34323;52.022;5.686;2022-09-13T05:39:06;23.90;99.90
48535;DHT22;34323;52.022;5.686;2022-09-13T05:41:32;23.90;99.90
48535;DHT22;34323;52.022;5.686;2022-09-13T05:43:58;23.90;99.90
48535;DHT22;34323;52.022;5.686;2022-09-13T05:46:25;23.80;99.90
48535;DHT22;34323;52.022;5.686;2022-09-13T05:48:51;24.10;99.90
48535;DHT22;34323;52.022;5.686;2022-09-13T05:51:18;24.00;99.90
48535;DHT22;34323;52.022;5.686;2022-09-13T05:53:46;24.20;99.90
48535;DHT22;34323;52.022;5.686;2022-09-13T05:56:15;24.10;99.90
48535;DHT22;34323;52.022;5.686;2022-09-13T05:58:42;23.70;99.90
48535;DHT22;34323;52.022;5.686;2022-09-13T06:01:10;23.50;99.90
48535;DHT22;34323;52.022;5.686;2022-09-13T06:03:36;23.80;99.90
48535;DHT22;34323;52.022;5.686;2022-09-13T06:06:03;23.90;99.90
48535;DHT22;34323;52.022;5.686;2022-09-13T06:08:31;24.00;99.90
48535;DHT22;34323;52.022;5.686;2022-09-13T06:10:59;24.10;99.90
48535;DHT22;34323;52.022;5.686;2022-09-13T06:13:26;24.10;99.90
48535;DHT22;34323;52.022;5.686;2022-09-13T06:15:54;24.20;99.90
48535;DHT22;34323;52.022;5.686;2022-09-13T06:18:20;24.30;99.90
48535;DHT22;34323;52.022;5.686;2022-09-13T06:20:46;24.30;99.90
48535;DHT22;34323;52.022;5.686;2022-09-13T06:23:13;24.30;99.90
48535;DHT22;34323;52.022;5.686;2022-09-13T06:25:39;24.20;99.90
48535;DHT22;34323;52.022;5.686;2022-09-13T06:28:06;24.20;99.90
48535;DHT22;34323;52.022;5.686;2022-09-13T06:30:32;24.20;99.90
48535;DHT22;34323;52.022;5.686;2022-09-13T06:32:59;24.30;99.90
48535;DHT22;34323;52.022;5.686;2022-09-13T06:35:24;24.40;99.90
48535;DHT22;34323;52.022;5.686;2022-09-13T06:37:50;24.40;99.90
48535;DHT22;34323;52.022;5.686;2022-09-13T06:40:19;24.20;99.90
48535;DHT22;34323;52.022;5.686;2022-09-13T06:42:47;24.40;99.90
48535;DHT22;34323;52.022;5.686;2022-09-13T06:45:13;24.40;99.90
48535;DHT22;34323;52.022;5.686;2022-09-13T06:47:41;24.30;99.90
48535;DHT22;34323;52.022;5.686;2022-09-13T06:50:08;24.20;99.90
48535;DHT22;34323;52.022;5.686;2022-09-13T06:52:34;24.30;99.90
48535;DHT22;34323;52.022;5.686;2022-09-13T06:55:00;24.50;99.90
48535;DHT22;34323;52.022;5.686;2022-09-13T06:57:28;24.80;99.90
48535;DHT22;34323;52.022;5.686;2022-09-13T06:59:54;24.60;99.90
48535;DHT22;34323;52.022;5.686;2022-09-13T07:02:20;24.50;99.90
48535;DHT22;34323;52.022;5.686;2022-09-13T07:04:46;24.40;99.90
48535;DHT22;34323;52.022;5.686;2022-09-13T07:07:11;24.50;99.90
48535;DHT22;34323;52.022;5.686;2022-09-13T07:09:37;24.70;99.90
48535;DHT22;34323;52.022;5.686;2022-09-13T07:12:05;24.50;99.90
48535;DHT22;34323;52.022;5.686;2022-09-13T07:14:31;24.50;99.90
48535;DHT22;34323;52.022;5.686;2022-09-13T07:16:57;24.20;99.90
48535;DHT22;34323;52.022;5.686;2022-09-13T07:19:27;24.10;99.90
48535;DHT22;34323;52.022;5.686;2022-09-13T07:21:54;24.10;99.90
48535;DHT22;34323;52.022;5.686;2022-09-13T07:24:21;24.40;99.90
48535;DHT22;34323;52.022;5.686;2022-09-13T07:26:48;24.40;99.90
48535;DHT22;34323;52.022;5.686;2022-09-13T07:29:16;24.60;99.90
48535;DHT22;34323;52.022;5.686;2022-09-13T07:31:46;24.80;99.90
48535;DHT22;34323;52.022;5.686;2022-09-13T07:34:14;24.80;99.90
48535;DHT22;34323;52.022;5.686;2022-09-13T07:36:41;24.90;99.90
48535;DHT22;34323;52.022;5.686;2022-09-13T07:39:08;25.20;99.90
48535;DHT22;34323;52.022;5.686;2022-09-13T07:41:34;25.20;99.90
48535;DHT22;34323;52.022;5.686;2022-09-13T07:44:01;25.30;99.90
48535;DHT22;34323;52.022;5.686;2022-09-13T07:46:30;25.40;99.90
48535;DHT22;34323;52.022;5.686;2022-09-13T07:48:57;25.50;99.90
48535;DHT22;34323;52.022;5.686;2022-09-13T07:51:26;25.50;99.90
48535;DHT22;34323;52.022;5.686;2022-09-13T07:53:55;25.50;99.90
48535;DHT22;34323;52.022;5.686;2022-09-13T07:56:26;25.60;99.90
48535;DHT22;34323;52.022;5.686;2022-09-13T07:58:53;26.00;99.90
48535;DHT22;34323;52.022;5.686;2022-09-13T08:01:23;25.70;99.90
48535;DHT22;34323;52.022;5.686;2022-09-13T08:03:58;25.50;99.90
48535;DHT22;34323;52.022;5.686;2022-09-13T08:06:26;25.70;99.90
48535;DHT22;34323;52.022;5.686;2022-09-13T08:08:52;26.00;99.90
48535;DHT22;34323;52.022;5.686;2022-09-13T08:11:30;25.60;99.90
48535;DHT22;34323;52.022;5.686;2022-09-13T08:13:56;25.80;99.90
48535;DHT22;34323;52.022;5.686;2022-09-13T08:16:24;25.90;99.90
48535;DHT22;34323;52.022;5.686;2022-09-13T08:18:52;26.10;99.90
48535;DHT22;34323;52.022;5.686;2022-09-13T08:21:18;26.30;99.90
48535;DHT22;34323;52.022;5.686;2022-09-13T08:23:45;26.40;99.90
48535;DHT22;34323;52.022;5.686;2022-09-13T08:26:11;26.50;99.90
48535;DHT22;34323;52.022;5.686;2022-09-13T08:28:39;26.70;99.90
48535;DHT22;34323;52.022;5.686;2022-09-13T08:31:10;26.70;99.90
48535;DHT22;34323;52.022;5.686;2022-09-13T08:33:36;26.80;99.90
48535;DHT22;34323;52.022;5.686;2022-09-13T08:36:03;26.70;99.90
48535;DHT22;34323;52.022;5.686;2022-09-13T08:38:30;26.70;99.90
48535;DHT22;34323;52.022;5.686;2022-09-13T08:41:02;26.70;99.90
48535;DHT22;34323;52.022;5.686;2022-09-13T08:43:48;26.50;99.90
48535;DHT22;34323;52.022;5.686;2022-09-13T08:46:28;26.90;99.90
48535;DHT22;34323;52.022;5.686;2022-09-13T08:49:22;26.90;99.90
48535;DHT22;34323;52.022;5.686;2022-09-13T08:51:48;27.00;99.90
48535;DHT22;34323;52.022;5.686;2022-09-13T08:54:17;26.80;99.90
48535;DHT22;34323;52.022;5.686;2022-09-13T09:05:21;27.20;99.90
48535;DHT22;34323;52.022;5.686;2022-09-13T09:07:52;27.20;99.90
48535;DHT22;34323;52.022;5.686;2022-09-13T09:10:22;27.20;99.90
48535;DHT22;34323;52.022;5.686;2022-09-13T09:13:55;27.30;99.90
48535;DHT22;34323;52.022;5.686;2022-09-13T09:18:49;27.70;99.90
48535;DHT22;34323;52.022;5.686;2022-09-13T09:21:17;27.70;99.90
48535;DHT22;34323;52.022;5.686;2022-09-13T09:23:50;27.40;99.90
48535;DHT22;34323;52.022;5.686;2022-09-13T09:26:17;27.10;99.90
48535;DHT22;34323;52.022;5.686;2022-09-13T09:29:29;27.20;99.90
48535;DHT22;34323;52.022;5.686;2022-09-13T09:37:23;27.00;99.90
48535;DHT22;34323;52.022;5.686;2022-09-13T09:39:52;27.30;99.90
48535;DHT22;34323;52.022;5.686;2022-09-13T09:42:21;27.30;99.90
48535;DHT22;34323;52.022;5.686;2022-09-13T09:44:59;27.20;99.90
48535;DHT22;34323;52.022;5.686;2022-09-13T09:47:28;27.40;99.90
48535;DHT22;34323;52.022;5.686;2022-09-13T09:50:07;27.40;99.90
48535;DHT22;34323;52.022;5.686;2022-09-13T09:53:05;27.50;99.90
48535;DHT22;34323;52.022;5.686;2022-09-13T09:55:42;27.70;99.90
48535;DHT22;34323;52.022;5.686;2022-09-13T09:58:11;27.70;99.90
48535;DHT22;34323;52.022;5.686;2022-09-13T10:00:59;27.70;99.90
48535;DHT22;34323;52.022;5.686;2022-09-13T10:03:31;27.30;99.90
48535;DHT22;34323;52.022;5.686;2022-09-13T10:06:24;27.20;99.90
48535;DHT22;34323;52.022;5.686;2022-09-13T10:09:03;27.40;99.90
48535;DHT22;34323;52.022;5.686;2022-09-13T10:11:50;27.70;99.90
48535;DHT22;34323;52.022;5.686;2022-09-13T10:14:46;27.50;99.90
48535;DHT22;34323;52.022;5.686;2022-09-13T10:22:40;27.50;99.90
48535;DHT22;34323;52.022;5.686;2022-09-13T10:25:23;27.30;99.90
48535;DHT22;34323;52.022;5.686;2022-09-13T10:27:55;27.50;99.90
48535;DHT22;34323;52.022;5.686;2022-09-13T10:33:03;27.70;99.90
48535;DHT22;34323;52.022;5.686;2022-09-13T10:35:30;27.90;99.90
48535;DHT22;34323;52.022;5.686;2022-09-13T10:37:57;28.10;99.90
48535;DHT22;34323;52.022;5.686;2022-09-13T10:40:32;28.20;99.90
48535;DHT22;34323;52.022;5.686;2022-09-13T10:43:01;28.30;99.90
48535;DHT22;34323;52.022;5.686;2022-09-13T10:45:30;28.00;99.90
48535;DHT22;34323;52.022;5.686;2022-09-13T10:48:16;28.10;99.90
48535;DHT22;34323;52.022;5.686;2022-09-13T10:51:05;28.20;99.90
48535;DHT22;34323;52.022;5.686;2022-09-13T10:53:38;28.20;99.90
48535;DHT22;34323;52.022;5.686;2022-09-13T10:56:05;28.30;99.90
48535;DHT22;34323;52.022;5.686;2022-09-13T10:58:31;28.60;99.90
48535;DHT22;34323;52.022;5.686;2022-09-13T11:06:23;28.80;99.90
48535;DHT22;34323;52.022;5.686;2022-09-13T11:09:22;29.00;99.90
48535;DHT22;34323;52.022;5.686;2022-09-13T11:28:26;29.50;99.90
48535;DHT22;34323;52.022;5.686;2022-09-13T11:31:15;29.40;99.90
48535;DHT22;34323;52.022;5.686;2022-09-13T11:39:42;29.70;99.90
48535;DHT22;34323;52.022;5.686;2022-09-13T11:42:42;29.80;99.90
48535;DHT22;34323;52.022;5.686;2022-09-13T11:45:17;29.70;99.90
48535;DHT22;34323;52.022;5.686;2022-09-13T11:48:06;29.70;99.90
48535;DHT22;34323;52.022;5.686;2022-09-13T11:50:48;29.70;99.90
48535;DHT22;34323;52.022;5.686;2022-09-13T11:56:10;29.80;99.90
48535;DHT22;34323;52.022;5.686;2022-09-13T11:58:50;30.00;99.90
48535;DHT22;34323;52.022;5.686;2022-09-13T12:01:32;30.20;99.90
48535;DHT22;34323;52.022;5.686;2022-09-13T12:04:03;30.50;99.90
48535;DHT22;34323;52.022;5.686;2022-09-13T12:06:34;30.90;99.90
48535;DHT22;34323;52.022;5.686;2022-09-13T12:09:28;31.00;99.90
48535;DHT22;34323;52.022;5.686;2022-09-13T12:14:25;30.90;99.90
48535;DHT22;34323;52.022;5.686;2022-09-13T12:16:58;30.70;99.90
48535;DHT22;34323;52.022;5.686;2022-09-13T12:19:42;30.30;99.90
48535;DHT22;34323;52.022;5.686;2022-09-13T12:22:10;29.80;99.90
48535;DHT22;34323;52.022;5.686;2022-09-13T12:24:52;29.50;99.90
48535;DHT22;34323;52.022;5.686;2022-09-13T12:27:39;29.60;99.90
48535;DHT22;34323;52.022;5.686;2022-09-13T12:30:21;29.60;99.90
48535;DHT22;34323;52.022;5.686;2022-09-13T12:32:48;29.80;99.90
48535;DHT22;34323;52.022;5.686;2022-09-13T12:35:24;30.10;99.90
48535;DHT22;34323;52.022;5.686;2022-09-13T12:38:19;30.30;99.90
48535;DHT22;34323;52.022;5.686;2022-09-13T12:41:05;30.60;99.90
48535;DHT22;34323;52.022;5.686;2022-09-13T12:43:41;30.90;99.50
48535;DHT22;34323;52.022;5.686;2022-09-13T12:48:47;30.70;99.30
48535;DHT22;34323;52.022;5.686;2022-09-13T12:51:25;30.70;99.40
48535;DHT22;34323;52.022;5.686;2022-09-13T13:02:33;30.80;98.80
48535;DHT22;34323;52.022;5.686;2022-09-13T13:05:05;30.30;99.70
48535;DHT22;34323;52.022;5.686;2022-09-13T13:07:34;30.30;99.30
48535;DHT22;34323;52.022;5.686;2022-09-13T13:10:06;30.60;99.40
48535;DHT22;34323;52.022;5.686;2022-09-13T13:12:47;31.20;99.00
48535;DHT22;34323;52.022;5.686;2022-09-13T13:20:43;32.70;97.90
48535;DHT22;34323;52.022;5.686;2022-09-13T13:23:37;32.20;98.60
48535;DHT22;34323;52.022;5.686;2022-09-13T13:41:59;33.80;95.70
48535;DHT22;34323;52.022;5.686;2022-09-13T13:46:53;33.40;96.10
48535;DHT22;34323;52.022;5.686;2022-09-13T14:02:25;37.80;92.90
48535;DHT22;34323;52.022;5.686;2022-09-13T14:10:28;37.50;91.80
48535;DHT22;34323;52.022;5.686;2022-09-13T14:16:06;35.80;92.40
48535;DHT22;34323;52.022;5.686;2022-09-13T14:21:26;35.30;92.60
48535;DHT22;34323;52.022;5.686;2022-09-13T14:24:15;36.30;92.60
48535;DHT22;34323;52.022;5.686;2022-09-13T14:26:46;36.70;92.50
48535;DHT22;34323;52.022;5.686;2022-09-13T14:29:18;36.80;92.00
48535;DHT22;34323;52.022;5.686;2022-09-13T14:31:49;36.20;92.30
48535;DHT22;34323;52.022;5.686;2022-09-13T14:34:30;36.20;93.00
48535;DHT22;34323;52.022;5.686;2022-09-13T14:36:59;36.20;92.20
48535;DHT22;34323;52.022;5.686;2022-09-13T14:39:27;35.80;92.30
48535;DHT22;34323;52.022;5.686;2022-09-13T14:42:13;35.30;93.10
48535;DHT22;34323;52.022;5.686;2022-09-13T14:44:46;35.30;92.40
48535;DHT22;34323;52.022;5.686;2022-09-13T14:47:29;35.10;92.60
48535;DHT22;34323;52.022;5.686;2022-09-13T14:50:13;35.10;93.00
48535;DHT22;34323;52.022;5.686;2022-09-13T14:52:50;35.00;92.50
48535;DHT22;34323;52.022;5.686;2022-09-13T14:55:26;34.70;92.60
48535;DHT22;34323;52.022;5.686;2022-09-13T14:57:57;34.30;93.20
48535;DHT22;34323;52.022;5.686;2022-09-13T15:00:24;34.20;93.30
48535;DHT22;34323;52.022;5.686;2022-09-13T15:02:57;34.60;93.40
48535;DHT22;34323;52.022;5.686;2022-09-13T15:05:27;35.40;93.60
48535;DHT22;34323;52.022;5.686;2022-09-13T15:07:54;36.10;93.50
48535;DHT22;34323;52.022;5.686;2022-09-13T15:10:26;35.90;91.90
48535;DHT22;34323;52.022;5.686;2022-09-13T15:12:54;35.10;92.00
48535;DHT22;34323;52.022;5.686;2022-09-13T15:23:24;32.60;93.70
48535;DHT22;34323;52.022;5.686;2022-09-13T15:26:10;32.20;94.20
48535;DHT22;34323;52.022;5.686;2022-09-13T15:31:09;31.30;93.60
48535;DHT22;34323;52.022;5.686;2022-09-13T15:33:36;30.70;94.10
48535;DHT22;34323;52.022;5.686;2022-09-13T15:36:26;30.50;94.80
48535;DHT22;34323;52.022;5.686;2022-09-13T15:39:19;30.50;94.70
48535;DHT22;34323;52.022;5.686;2022-09-13T15:41:59;30.40;93.80
48535;DHT22;34323;52.022;5.686;2022-09-13T15:44:27;30.20;94.60
48535;DHT22;34323;52.022;5.686;2022-09-13T15:47:01;29.90;94.60
48535;DHT22;34323;52.022;5.686;2022-09-13T15:49:30;30.10;95.40
48535;DHT22;34323;52.022;5.686;2022-09-13T15:52:02;30.20;94.50
48535;DHT22;34323;52.022;5.686;2022-09-13T15:54:40;30.30;94.60
48535;DHT22;34323;52.022;5.686;2022-09-13T15:57:24;30.20;94.40
48535;DHT22;34323;52.022;5.686;2022-09-13T15:59:50;29.90;94.00
48535;DHT22;34323;52.022;5.686;2022-09-13T16:02:29;29.60;94.40
48535;DHT22;34323;52.022;5.686;2022-09-13T16:04:56;29.20;94.50
48535;DHT22;34323;52.022;5.686;2022-09-13T16:07:24;28.40;95.60
48535;DHT22;34323;52.022;5.686;2022-09-13T16:09:50;28.00;95.60
48535;DHT22;34323;52.022;5.686;2022-09-13T16:12:17;27.90;95.30
48535;DHT22;34323;52.022;5.686;2022-09-13T16:14:51;27.70;96.10
48535;DHT22;34323;52.022;5.686;2022-09-13T16:17:25;27.70;96.30
48535;DHT22;34323;52.022;5.686;2022-09-13T16:19:52;27.60;96.50
48535;DHT22;34323;52.022;5.686;2022-09-13T16:22:20;27.60;96.80
48535;DHT22;34323;52.022;5.686;2022-09-13T16:24:46;27.70;96.50
48535;DHT22;34323;52.022;5.686;2022-09-13T16:27:13;27.30;96.40
48535;DHT22;34323;52.022;5.686;2022-09-13T16:29:39;27.20;96.60
48535;DHT22;34323;52.022;5.686;2022-09-13T16:32:05;27.30;96.60
48535;DHT22;34323;52.022;5.686;2022-09-13T16:34:31;27.50;97.10
48535;DHT22;34323;52.022;5.686;2022-09-13T16:36:57;27.50;96.20
48535;DHT22;34323;52.022;5.686;2022-09-13T16:39:23;27.40;96.90
48535;DHT22;34323;52.022;5.686;2022-09-13T16:41:49;27.40;97.00
48535;DHT22;34323;52.022;5.686;2022-09-13T16:44:14;27.30;96.50
48535;DHT22;34323;52.022;5.686;2022-09-13T16:46:41;27.40;96.40
48535;DHT22;34323;52.022;5.686;2022-09-13T16:49:06;27.50;96.50
48535;DHT22;34323;52.022;5.686;2022-09-13T16:51:32;27.70;96.60
48535;DHT22;34323;52.022;5.686;2022-09-13T16:53:58;27.90;96.50
48535;DHT22;34323;52.022;5.686;2022-09-13T16:56:25;27.90;96.60
48535;DHT22;34323;52.022;5.686;2022-09-13T16:58:52;27.70;96.60
48535;DHT22;34323;52.022;5.686;2022-09-13T17:01:21;27.60;97.20
48535;DHT22;34323;52.022;5.686;2022-09-13T17:03:47;27.50;97.10
48535;DHT22;34323;52.022;5.686;2022-09-13T17:06:15;27.20;96.40
48535;DHT22;34323;52.022;5.686;2022-09-13T17:08:45;27.10;96.80
48535;DHT22;34323;52.022;5.686;2022-09-13T17:11:13;27.10;96.90
48535;DHT22;34323;52.022;5.686;2022-09-13T17:13:42;27.30;97.10
48535;DHT22;34323;52.022;5.686;2022-09-13T17:16:21;27.30;97.30
48535;DHT22;34323;52.022;5.686;2022-09-13T17:18:54;27.30;97.00
48535;DHT22;34323;52.022;5.686;2022-09-13T17:21:22;27.20;97.00
48535;DHT22;34323;52.022;5.686;2022-09-13T17:23:49;27.20;96.80
48535;DHT22;34323;52.022;5.686;2022-09-13T17:26:15;27.10;97.20
48535;DHT22;34323;52.022;5.686;2022-09-13T17:28:41;26.80;97.10
48535;DHT22;34323;52.022;5.686;2022-09-13T17:31:07;26.80;97.60
48535;DHT22;34323;52.022;5.686;2022-09-13T17:33:33;26.80;97.40
48535;DHT22;34323;52.022;5.686;2022-09-13T17:36:18;26.30;98.00
48535;DHT22;34323;52.022;5.686;2022-09-13T17:38:44;26.40;97.90
48535;DHT22;34323;52.022;5.686;2022-09-13T17:41:11;26.40;97.80
48535;DHT22;34323;52.022;5.686;2022-09-13T17:43:38;26.20;97.90
48535;DHT22;34323;52.022;5.686;2022-09-13T17:46:09;26.20;97.70
48535;DHT22;34323;52.022;5.686;2022-09-13T17:48:36;26.30;97.70
48535;DHT22;34323;52.022;5.686;2022-09-13T17:51:04;26.10;97.40
48535;DHT22;34323;52.022;5.686;2022-09-13T17:53:30;26.30;97.00
48535;DHT22;34323;52.022;5.686;2022-09-13T17:55:56;26.30;97.10
48535;DHT22;34323;52.022;5.686;2022-09-13T17:58:25;26.20;97.30
48535;DHT22;34323;52.022;5.686;2022-09-13T18:01:02;26.00;97.50
48535;DHT22;34323;52.022;5.686;2022-09-13T18:03:29;25.90;97.50
48535;DHT22;34323;52.022;5.686;2022-09-13T18:05:57;25.80;97.70
48535;DHT22;34323;52.022;5.686;2022-09-13T18:08:27;25.80;97.50
48535;DHT22;34323;52.022;5.686;2022-09-13T18:11:14;25.90;97.50
48535;DHT22;34323;52.022;5.686;2022-09-13T18:13:44;26.00;97.50
48535;DHT22;34323;52.022;5.686;2022-09-13T18:16:18;25.90;97.50
48535;DHT22;34323;52.022;5.686;2022-09-13T18:18:49;25.60;97.60
48535;DHT22;34323;52.022;5.686;2022-09-13T18:21:19;25.50;97.60
48535;DHT22;34323;52.022;5.686;2022-09-13T18:23:47;25.40;97.60
48535;DHT22;34323;52.022;5.686;2022-09-13T18:26:16;25.50;97.50
48535;DHT22;34323;52.022;5.686;2022-09-13T18:28:42;25.50;97.70
48535;DHT22;34323;52.022;5.686;2022-09-13T18:31:12;25.50;97.50
48535;DHT22;34323;52.022;5.686;2022-09-13T18:33:38;25.60;97.50
48535;DHT22;34323;52.022;5.686;2022-09-13T18:36:09;25.70;97.50
48535;DHT22;34323;52.022;5.686;2022-09-13T18:38:41;25.60;97.00
48535;DHT22;34323;52.022;5.686;2022-09-13T18:41:15;25.50;97.20
48535;DHT22;34323;52.022;5.686;2022-09-13T18:43:43;25.30;97.60
48535;DHT22;34323;52.022;5.686;2022-09-13T18:46:11;25.20;97.60
48535;DHT22;34323;52.022;5.686;2022-09-13T18:48:39;25.00;97.60
48535;DHT22;34323;52.022;5.686;2022-09-13T18:51:10;25.10;97.90
48535;DHT22;34323;52.022;5.686;2022-09-13T18:53:36;25.00;97.50
48535;DHT22;34323;52.022;5.686;2022-09-13T18:56:05;24.90;97.60
48535;DHT22;34323;52.022;5.686;2022-09-13T18:58:33;24.90;97.80
48535;DHT22;34323;52.022;5.686;2022-09-13T19:01:12;25.00;97.80
48535;DHT22;34323;52.022;5.686;2022-09-13T19:03:52;25.00;97.70